Temp     Hi    Low   Out    Dew  Wind  Wind   Wind    Hi    Hi   Wind   Heat    THW                Rain    Heat    Cool    In     In    In     In     In   In Air   Temp  Wind  Wind    ISS   Arc.
  Date    Time     Out   Temp   Temp   Hum    Pt. Speed   Dir    Run Speed   Dir  Chill  Index  Index   Bar    Rain  Rate    D-D     D-D    Temp   Hum    Dew   Heat    EMC Density    2nd  Samp   Tx   Recept  Int.
----------------------------------------------------------------------------------------------------------------------------------------------------------------------------------------------------------------------
22/06/21 12:10a    4.6    4.6    4.4    93    3.6   0.0   ---   0.00   0.0   ---    4.6    4.6    4.6  1027.7  0.00   0.0   0.095   0.000   18.0    35    2.3   16.2   7.05 1.2216     ---   146    1     64.0   10 
22/06/21 12:20a    4.8    4.8    4.6    94    3.9   0.0   ---   0.00   0.0   ---    4.8    4.8    4.8  1027.7  0.00   0.0   0.094   0.000   17.8    35    2.1   16.1   7.05 1.2225     ---   152    1     66.7   10 
22/06/21 12:30a    4.8    4.8    4.8    94    3.9   0.0   ---   0.00   0.0   ---    4.8    4.9    4.9  1027.7  0.00   0.0   0.094   0.000   17.6    35    2.0   15.8   7.05 1.2236     ---   152    1     66.7   10 
22/06/21 12:40a    4.8    4.8    4.8    94    3.9   0.0   ---   0.00   0.0   ---    4.8    4.9    4.9  1027.7  0.00   0.0   0.094   0.000   17.4    35    1.8   15.7   7.05 1.2243     ---   143    1     62.7   10 
22/06/21 12:50a    4.8    4.8    4.8    94    3.9   0.0   ---   0.00   0.0   ---    4.8    4.9    4.9  1027.8  0.00   0.0   0.094   0.000   17.4    35    1.8   15.6   7.05 1.2247     ---   126    1     55.3   10 
22/06/21  1:00a    4.8    4.8    4.8    94    3.9   0.0   ---   0.00   0.0   ---    4.8    4.9    4.9  1027.8  0.00   0.0   0.094   0.000   17.2    35    1.6   15.4   7.05 1.2255     ---   102    1     44.7   10 
22/06/21  1:10a    4.8    4.8    4.8    93    3.7   0.0   ---   0.00   0.0   ---    4.8    4.8    4.8  1027.8  0.00   0.0   0.094   0.000   17.1    35    1.5   15.3   7.05 1.2260     ---   119    1     52.2   10 
22/06/21  1:20a    4.7    4.8    4.7    93    3.6   0.0   ---   0.00   0.0   ---    4.7    4.7    4.7  1027.6  0.00   0.0   0.095   0.000   16.9    35    1.4   15.2   7.05 1.2265     ---   154    1     67.5   10 
22/06/21  1:30a    4.4    4.6    4.4    93    3.4   0.0   ---   0.00   0.0   ---    4.4    4.4    4.4  1027.7  0.00   0.0   0.096   0.000   16.8    35    1.3   15.1   7.05 1.2272     ---   144    1     63.2   10 
22/06/21  1:40a    4.3    4.4    4.3    93    3.2   0.0   ---   0.00   0.0   ---    4.3    4.3    4.3  1027.7  0.00   0.0   0.098   0.000   16.8    35    1.2   15.0   7.05 1.2275     ---   140    1     61.4   10 
22/06/21  1:50a    4.1    4.3    4.1    93    3.1   0.0   ---   0.00   0.0   ---    4.1    4.1    4.1  1027.9  0.00   0.0   0.099   0.000   16.6    36    1.5   14.9   7.21 1.2283     ---   147    1     64.5   10 
22/06/21  2:00a    4.1    4.1    4.1    93    3.0   0.0   ---   0.00   0.0   ---    4.1    4.1    4.1  1027.9  0.00   0.0   0.099   0.000   16.5    36    1.4   14.8   7.22 1.2288     ---   148    1     64.9   10 
22/06/21  2:10a    4.1    4.1    4.1    94    3.2   0.0   ---   0.00   0.0   ---    4.1    4.1    4.1  1027.9  0.00   0.0   0.099   0.000   16.4    36    1.3   14.7   7.22 1.2293     ---   140    1     61.4   10 
22/06/21  2:20a    4.1    4.1    4.1    94    3.2   0.0   ---   0.00   0.0   ---    4.1    4.1    4.1  1027.8  0.00   0.0   0.099   0.000   16.3    36    1.2   14.6   7.22 1.2295     ---   144    1     63.2   10 
22/06/21  2:30a    4.2    4.2    4.1    94    3.3   0.0   ---   0.00   0.0   ---    4.2    4.2    4.2  1027.7  0.00   0.0   0.098   0.000   16.2    36    1.1   14.4   7.23 1.2302     ---   144    1     63.2   10 
22/06/21  2:40a    4.4    4.4    4.2    94    3.5   0.0   ---   0.00   0.0   ---    4.4    4.4    4.4  1027.7  0.00   0.0   0.097   0.000   16.1    36    1.0   14.3   7.23 1.2307     ---   142    1     62.3   10 
22/06/21  2:50a    4.6    4.6    4.4    95    3.9   0.0   ---   0.00   0.0   ---    4.6    4.7    4.7  1027.8  0.00   0.0   0.095   0.000   16.0    36    0.9   14.3   7.23 1.2311     ---   126    1     55.3   10 
22/06/21  3:00a    4.7    4.7    4.6    95    3.9   0.0   ---   0.00   0.0   ---    4.7    4.7    4.7  1027.7  0.00   0.0   0.095   0.000   15.9    36    0.8   14.2   7.24 1.2315     ---   114    1     50.0   10 
22/06/21  3:10a    4.8    4.8    4.7    95    4.0   0.0   ---   0.00   0.0   ---    4.8    4.8    4.8  1027.7  0.00   0.0   0.094   0.000   15.8    36    0.7   14.1   7.24 1.2320     ---   120    1     52.6   10 
22/06/21  3:20a    4.8    4.8    4.8    95    4.1   0.0   ---   0.00   0.0   ---    4.8    4.9    4.9  1027.9  0.00   0.0   0.094   0.000   15.8    36    0.7   14.1   7.24 1.2322     ---   148    1     64.9   10 
22/06/21  3:30a    4.9    4.9    4.8    95    4.2   0.0   ---   0.00   0.0   ---    4.9    5.0    5.0  1028.0  0.00   0.0   0.093   0.000   15.8    36    0.7   14.1   7.24 1.2323     ---    96    1     42.1   10 
22/06/21  3:40a    5.1    5.1    4.9    95    4.4   0.0   ---   0.00   0.0   ---    5.1    5.2    5.2  1028.0  0.00   0.0   0.092   0.000   15.7    36    0.7   14.1   7.24 1.2326     ---   146    1     64.0   10 
22/06/21  3:50a    5.2    5.2    5.1    95    4.4   0.0   ---   0.00   0.0   ---    5.2    5.2    5.2  1027.9  0.00   0.0   0.091   0.000   15.6    36    0.6   13.9   7.25 1.2330     ---   147    1     64.5   10 
22/06/21  4:00a    5.2    5.2    5.2    95    4.4   0.0   ---   0.00   0.0   ---    5.2    5.2    5.2  1027.8  0.00   0.0   0.091   0.000   15.6    36    0.5   13.9   7.25 1.2332     ---   140    1     61.4   10 
22/06/21  4:10a    5.2    5.2    5.2    95    4.5   0.0   ---   0.00   0.0   ---    5.2    5.3    5.3  1027.8  0.00   0.0   0.091   0.000   15.4    37    0.8   13.8   7.35 1.2335     ---   151    1     66.2   10 
22/06/21  4:20a    5.3    5.3    5.2    95    4.6   0.0   ---   0.00   0.0   ---    5.3    5.4    5.4  1028.0  0.00   0.0   0.090   0.000   15.4    37    0.8   13.8   7.35 1.2338     ---   144    1     63.2   10 
22/06/21  4:30a    5.3    5.3    5.3    95    4.6   0.0   ---   0.00   0.0   ---    5.3    5.4    5.4  1027.9  0.00   0.0   0.090   0.000   15.4    37    0.8   13.8   7.35 1.2339     ---   138    1     60.5   10 
22/06/21  4:40a    5.3    5.4    5.3    95    4.6   0.0   ---   0.00   0.0   ---    5.3    5.4    5.4  1027.9  0.00   0.0   0.090   0.000   15.3    37    0.7   13.7   7.35 1.2345     ---   135    1     59.2   10 
22/06/21  4:50a    5.1    5.3    5.1    94    4.2   0.0   ---   0.00   0.0   ---    5.1    5.2    5.2  1027.1  0.00   0.0   0.092   0.000   15.2    37    0.6   13.6   7.35 1.2337     ---   117    1     51.3   10 
22/06/21  5:00a    4.7    5.1    4.7    94    3.8   0.0   ---   0.00   0.0   ---    4.7    4.7    4.7  1026.9  0.00   0.0   0.095   0.000   15.1    37    0.5   13.5   7.35 1.2339     ---   110    1     48.2   10 
22/06/21  5:10a    4.3    4.7    4.3    93    3.2   0.0   ---   0.00   0.0   ---    4.3    4.3    4.3  1026.9  0.00   0.0   0.098   0.000   15.1    37    0.5   13.5   7.35 1.2339     ---   151    1     66.2   10 
22/06/21  5:20a    4.0    4.3    4.0    94    3.1   0.0   ---   0.00   0.0   ---    4.0    4.0    4.0  1027.3  0.00   0.0   0.100   0.000   15.1    37    0.5   13.4   7.35 1.2347     ---   140    1     61.4   10 
22/06/21  5:30a    3.8    4.0    3.8    93    2.8   0.0   ---   0.00   0.0   ---    3.8    3.8    3.8  1027.7  0.00   0.0   0.101   0.000   14.9    37    0.4   13.3   7.35 1.2357     ---   146    1     64.0   10 
22/06/21  5:40a    3.6    3.7    3.6    93    2.5   0.0   ---   0.00   0.0   ---    3.6    3.6    3.6  1027.7  0.00   0.0   0.103   0.000   14.9    37    0.3   13.3   7.35 1.2360     ---   146    1     64.0   10 
22/06/21  5:50a    3.4    3.6    3.4    93    2.4   0.0   ---   0.00   0.0   ---    3.4    3.4    3.4  1028.3  0.00   0.0   0.104   0.000   14.8    37    0.2   13.2   7.35 1.2373     ---   143    1     62.7   10 
22/06/21  6:00a    3.1    3.3    3.1    93    2.1   0.0   ---   0.00   0.0   ---    3.1    3.1    3.1  1028.7  0.00   0.0   0.106   0.000   14.7    37    0.2   13.1   7.35 1.2380     ---   144    1     63.2   10 
22/06/21  6:10a    2.8    3.1    2.8    93    1.8   0.0   ---   0.00   0.0   ---    2.8    2.8    2.8  1028.7  0.00   0.0   0.108   0.000   14.6    37    0.1   13.0   7.35 1.2385     ---   134    1     58.8   10 
22/06/21  6:20a    2.6    2.8    2.6    93    1.5   0.0   ---   0.00   0.0   ---    2.6    2.6    2.6  1029.6  0.00   0.0   0.110   0.000   14.6    37    0.0   12.9   7.35 1.2399     ---   151    1     66.2   10 
22/06/21  6:30a    2.2    2.4    2.2    92    1.1   0.0   ---   0.00   0.0   ---    2.2    2.2    2.2  1029.5  0.00   0.0   0.112   0.000   14.4    37   -0.1   12.9   7.35 1.2404     ---   144    1     63.2   10 
22/06/21  6:40a    1.9    2.2    1.9    92    0.7   0.0   ---   0.00   0.0   ---    1.9    1.8    1.8  1029.5  0.00   0.0   0.114   0.000   14.6    38    0.4   13.0   7.51 1.2396     ---   147    1     64.5   10 
22/06/21  6:50a    1.6    1.9    1.6    92    0.4   0.0   ---   0.00   0.0   ---    1.6    1.5    1.5  1029.6  0.00   0.0   0.117   0.000   15.1    38    0.8   13.4   7.53 1.2374     ---   115    1     50.4   10 
22/06/21  7:00a    1.5    1.6    1.5    93    0.5   0.0   ---   0.00   0.0   ---    1.5    1.4    1.4  1030.1  0.00   0.0   0.117   0.000   15.6    38    1.3   14.0   7.55 1.2353     ---   104    1     45.6   10 
22/06/21  7:10a    1.6    1.6    1.6    93    0.5   0.0   ---   0.00   0.0   ---    1.6    1.5    1.5  1030.1  0.00   0.0   0.117   0.000   16.2    38    1.9   14.6   7.55 1.2323     ---   112    1     49.1   10 
22/06/21  7:20a    1.5    1.6    1.5    93    0.5   0.0   ---   0.00   0.0   ---    1.5    1.4    1.4  1030.7  0.00   0.0   0.117   0.000   17.0    40    3.3   15.5   7.85 1.2289     ---   152    1     66.7   10 
22/06/21  7:30a    1.4    1.5    1.4    93    0.4   0.0   ---   0.00   0.0   ---    1.4    1.3    1.3  1031.0  0.00   0.0   0.118   0.000   17.4    39    3.3   15.9   7.72 1.2273     ---   126    1     55.3   10 
22/06/21  7:40a    1.4    1.4    1.4    93    0.4   0.0   ---   0.00   0.0   ---    1.4    1.3    1.3  1031.0  0.00   0.0   0.118   0.000   17.4    37    2.6   15.8   7.35 1.2278     ---   125    1     54.8   10 
22/06/21  7:50a    1.7    1.7    1.5    94    0.9   0.0   ---   0.00   0.0   ---    1.7    1.7    1.7  1031.1  0.00   0.0   0.115   0.000   17.3    37    2.4   15.6   7.35 1.2286     ---   136    1     59.6   10 
22/06/21  8:00a    1.8    1.8    1.7    94    1.0   0.0   ---   0.00   0.0   ---    1.8    1.8    1.8  1031.1  0.00   0.0   0.115   0.000   17.0    37    2.2   15.3   7.35 1.2300     ---   154    1     67.5   10 
22/06/21  8:10a    1.9    1.9    1.8    94    1.0   0.0   ---   0.00   0.0   ---    1.9    1.9    1.9  1031.1  0.00   0.0   0.114   0.000   16.8    37    2.0   15.2   7.35 1.2308     ---   153    1     67.1   10 
22/06/21  8:20a    2.2    2.2    1.9    95    1.5   0.0   ---   0.00   0.0   ---    2.2    2.2    2.2  1031.2  0.00   0.0   0.112   0.000   16.8    36    1.6   15.1   7.21 1.2315     ---   153    1     67.1   10 
22/06/21  8:30a    2.4    2.4    2.2    95    1.7   0.0   ---   0.00   0.0   ---    2.4    2.4    2.4  1031.3  0.00   0.0   0.111   0.000   16.6    36    1.5   14.9   7.21 1.2324     ---   148    1     64.9   10 
22/06/21  8:40a    2.8    2.8    2.4    96    2.2   0.0   ---   0.00   0.0   ---    2.8    2.8    2.8  1031.3  0.00   0.0   0.108   0.000   16.5    36    1.4   14.8   7.22 1.2329     ---   154    1     67.5   10 
22/06/21  8:50a    3.1    3.1    2.8    96    2.5   0.0   ---   0.00   0.0   ---    3.1    3.1    3.1  1031.4  0.00   0.0   0.106   0.000   16.5    36    1.4   14.8   7.22 1.2330     ---   156    1     68.4   10 
22/06/21  9:00a    3.6    3.6    3.1    96    3.0   0.0   ---   0.00   0.0   ---    3.6    3.6    3.6  1031.4  0.00   0.0   0.103   0.000   16.5    36    1.4   14.8   7.22 1.2330     ---   139    1     61.0   10 
22/06/21  9:10a    4.2    4.2    3.7    97    3.8   0.0   ---   0.00   0.0   ---    4.2    4.3    4.3  1031.4  0.00   0.0   0.098   0.000   16.5    36    1.4   14.8   7.22 1.2330     ---   132    1     57.9   10 
22/06/21  9:20a    4.8    4.8    4.2    97    4.4   0.0   ---   0.00   0.0   ---    4.8    4.9    4.9  1031.0  0.25   0.0   0.094   0.000   16.5    36    1.4   14.8   7.22 1.2325     ---   127    1     55.7   10 
22/06/21  9:30a    5.4    5.4    4.8    98    5.1   0.0   ---   0.00   0.0   ---    5.4    5.5    5.5  1030.5  0.00   0.0   0.090   0.000   16.5    36    1.4   14.8   7.22 1.2320     ---   165    1     72.4   10 
22/06/21  9:40a    6.1    6.1    5.4    98    5.8   0.0   ---   0.00   0.0   ---    6.1    6.2    6.2  1030.5  0.00   0.0   0.085   0.000   16.6    36    1.5   14.9   7.21 1.2315     ---   153    1     67.1   10 
22/06/21  9:50a    6.6    6.6    6.1    97    6.2   0.0   ---   0.00   0.0   ---    6.6    6.8    6.8  1030.6  0.00   0.0   0.081   0.000   16.6    36    1.5   14.9   7.21 1.2315     ---   151    1     66.2   10 
22/06/21 10:00a    7.1    7.1    6.6    96    6.5   0.0   ---   0.00   0.0   ---    7.1    7.2    7.2  1030.4  0.00   0.0   0.078   0.000   16.7    36    1.5   14.9   7.21 1.2310     ---   154    1     67.5   10 
22/06/21 10:10a    7.7    7.7    7.2    94    6.8   0.0   ---   0.00   0.0   ---    7.7    7.8    7.8  1030.4  0.00   0.0   0.074   0.000   16.7    36    1.5   14.9   7.21 1.2310     ---   152    1     66.7   10 
22/06/21 10:20a    7.9    7.9    7.7    90    6.4   0.0   ---   0.00   0.0   ---    7.9    8.0    8.0  1030.4  0.00   0.0   0.072   0.000   16.8    36    1.6   15.1   7.21 1.2305     ---   158    1     69.3   10 
22/06/21 10:30a    8.4    8.4    8.1    88    6.6   0.0   ---   0.00   0.0   ---    8.4    8.5    8.5  1030.1  0.00   0.0   0.069   0.000   16.8    36    1.7   15.1   7.20 1.2298     ---   151    1     66.2   10 
22/06/21 10:40a    9.1    9.1    8.4    84    6.5   0.0   ---   0.00   0.0   ---    9.1    9.1    9.1  1030.1  0.00   0.0   0.064   0.000   16.8    36    1.7   15.1   7.20 1.2298     ---   157    1     68.9   10 
22/06/21 10:50a    9.6    9.6    9.1    81    6.5   0.0   ---   0.00   0.0   ---    9.6    9.6    9.6  1029.9  0.00   0.0   0.061   0.000   16.9    36    1.8   15.2   7.20 1.2291     ---   145    1     63.6   10 
22/06/21 11:00a   10.0   10.0    9.6    77    6.2   0.0   ---   0.00   0.0   ---   10.0    9.9    9.9  1029.9  0.00   0.0   0.058   0.000   17.0    37    2.2   15.3   7.35 1.2286     ---   115    1     50.4   10 
22/06/21 11:10a   10.4   10.4   10.0    73    5.8   0.0   ---   0.00   0.0   ---   10.4   10.2   10.2  1029.9  0.00   0.0   0.055   0.000   17.1    37    2.3   15.4   7.35 1.2281     ---   134    1     58.8   10 
22/06/21 11:20a   10.8   10.8   10.4    70    5.6   0.0   ---   0.00   0.0   ---   10.8   10.6   10.6  1029.4  0.00   0.0   0.052   0.000   17.1    37    2.3   15.4   7.35 1.2275     ---   152    1     66.7   10 
22/06/21 11:30a   11.2   11.2   10.8    69    5.7   0.0   ---   0.00   0.0   ---   11.2   10.8   10.8  1029.0  0.00   0.0   0.050   0.000   17.1    37    2.3   15.4   7.35 1.2269     ---   153    1     67.1   10 
22/06/21 11:40a   11.8   11.8   11.2    66    5.7   0.0   ---   0.00   0.0   ---   11.8   11.3   11.3  1029.0  0.00   0.0   0.045   0.000   17.2    37    2.4   15.6   7.35 1.2264     ---   146    1     64.0   10 
22/06/21 11:50a   12.7   12.7   11.8    65    6.3   0.0   ---   0.00   0.0   ---   12.7   12.2   12.2  1028.8  0.00   0.0   0.039   0.000   17.4    37    2.5   15.7   7.35 1.2254     ---   150    1     65.8   10 
22/06/21 12:00p   13.0   13.0   12.8    66    6.8   0.0   ---   0.00   0.0   ---   13.0   12.4   12.4  1028.4  0.00   0.0   0.037   0.000   17.4    37    2.6   15.8   7.35 1.2247     ---   154    1     67.5   10 
22/06/21 12:10p   12.6   13.1   12.6    65    6.1   0.0   ---   0.00   0.0   ---   12.6   12.0   12.0  1028.4  0.00   0.0   0.040   0.000   17.6    37    2.7   15.9   7.35 1.2242     ---   153    1     67.1   10 
22/06/21 12:20p   12.2   12.6   12.2    65    5.8   0.0   ---   0.00   0.0   ---   12.2   11.7   11.7  1028.0  0.00   0.0   0.042   0.000   17.6    37    2.7   15.9   7.35 1.2237     ---   140    1     61.4   10 
22/06/21 12:30p   12.1   12.2   12.0    63    5.2   0.0   ---   0.00   0.0   ---   12.1   11.4   11.4  1027.9  0.00   0.0   0.044   0.000   17.6    37    2.7   15.9   7.35 1.2235     ---   121    1     53.1   10 
22/06/21 12:40p   12.4   12.4   12.1    61    5.1   0.0   ---   0.00   0.0   ---   12.4   11.7   11.7  1027.9  0.00   0.0   0.041   0.000   17.6    37    2.7   15.9   7.35 1.2232     ---   126    1     55.3   10 
22/06/21 12:50p   12.9   12.9   12.4    60    5.3   0.0   ---   0.00   0.0   ---   12.9   12.2   12.2  1027.4  0.00   0.0   0.038   0.000   17.6    38    3.1   16.0   7.55 1.2225     ---   170    1     74.6   10 
22/06/21  1:00p   12.9   12.9   12.8    59    5.1   0.0   ---   0.00   0.0   ---   12.9   12.2   12.2  1027.3  0.00   0.0   0.038   0.000   17.7    37    2.8   16.1   7.35 1.2220     ---   153    1     67.1   10 
22/06/21  1:10p   12.9   13.0   12.9    58    4.8   0.0   ---   0.00   0.0   ---   12.9   12.1   12.1  1027.3  0.00   0.0   0.038   0.000   17.7    38    3.2   16.1   7.55 1.2217     ---   141    1     61.8   10 
22/06/21  1:20p   12.8   12.9   12.8    58    4.8   0.0   ---   0.00   0.0   ---   12.8   12.1   12.1  1027.3  0.00   0.0   0.038   0.000   17.7    38    3.2   16.1   7.55 1.2218     ---   139    1     61.0   10 
22/06/21  1:30p   12.7   12.8   12.7    59    4.9   0.0   ---   0.00   0.0   ---   12.7   12.0   12.0  1027.2  0.00   0.0   0.039   0.000   17.7    38    3.2   16.1   7.55 1.2217     ---   138    1     60.5   10 
22/06/21  1:40p   12.5   12.7   12.5    59    4.7   0.0   ---   0.00   0.0   ---   12.5   11.8   11.8  1027.2  0.00   0.0   0.041   0.000   17.7    38    3.2   16.1   7.55 1.2217     ---   130    1     57.0   10 
22/06/21  1:50p   12.9   12.9   12.5    59    5.1   0.0   ---   0.00   0.0   ---   12.9   12.2   12.2  1027.1  0.00   0.0   0.038   0.000   17.7    38    3.2   16.1   7.55 1.2215     ---   145    1     63.6   10 
22/06/21  2:00p   13.2   13.2   12.9    58    5.1   0.0   ---   0.00   0.0   ---   13.2   12.4   12.4  1027.0  0.00   0.0   0.036   0.000   17.7    38    3.2   16.1   7.55 1.2214     ---   121    1     53.1   10 
22/06/21  2:10p   13.2   13.2   13.2    59    5.3   0.0   ---   0.00   0.0   ---   13.2   12.4   12.4  1027.0  0.00   0.0   0.036   0.000   17.7    38    3.2   16.1   7.55 1.2214     ---   100    1     43.9   10 
22/06/21  2:20p   13.1   13.2   13.1    59    5.2   0.0   ---   0.00   0.0   ---   13.1   12.3   12.3  1026.7  0.00   0.0   0.037   0.000   17.7    38    3.2   16.1   7.55 1.2210     ---   151    1     66.2   10 
22/06/21  2:30p   12.8   13.1   12.8    57    4.5   0.0   ---   0.00   0.0   ---   12.8   12.1   12.1  1026.7  0.00   0.0   0.038   0.000   17.7    38    3.2   16.1   7.55 1.2211     ---   137    1     60.1   10 
22/06/21  2:40p   13.0   13.0   12.8    58    4.9   0.0   ---   0.00   0.0   ---   13.0   12.2   12.2  1026.7  0.00   0.0   0.037   0.000   17.7    38    3.2   16.1   7.55 1.2211     ---   137    1     60.1   10 
22/06/21  2:50p   13.2   13.2   13.0    55    4.4   0.0   ---   0.00   0.0   ---   13.2   12.3   12.3  1026.4  0.00   0.0   0.035   0.000   17.7    38    3.2   16.1   7.55 1.2207     ---   148    1     64.9   10 
22/06/21  3:00p   13.0   13.2   13.0    57    4.7   0.0   ---   0.00   0.0   ---   13.0   12.2   12.2  1026.7  0.00   0.0   0.037   0.000   17.7    38    3.2   16.1   7.55 1.2210     ---   135    1     59.2   10 
22/06/21  3:10p   12.7   13.0   12.7    57    4.4   0.0   ---   0.00   0.0   ---   12.7   11.9   11.9  1026.7  0.00   0.0   0.039   0.000   17.7    39    3.6   16.2   7.73 1.2208     ---   142    1     62.3   10 
22/06/21  3:20p   12.6   12.7   12.6    59    4.8   0.0   ---   0.00   0.0   ---   12.6   11.8   11.8  1026.3  0.00   0.0   0.040   0.000   17.7    39    3.6   16.2   7.73 1.2203     ---   137    1     60.1   10 
22/06/21  3:30p   12.3   12.6   12.3    58    4.3   0.0   ---   0.00   0.0   ---   12.3   11.6   11.6  1026.5  0.00   0.0   0.042   0.000   17.6    39    3.5   16.1   7.72 1.2211     ---   127    1     55.7   10 
22/06/21  3:40p   12.2   12.3   12.2    60    4.7   0.0   ---   0.00   0.0   ---   12.2   11.6   11.6  1026.5  0.00   0.0   0.042   0.000   17.6    39    3.4   16.0   7.72 1.2214     ---   113    1     49.6   10 
22/06/21  3:50p   12.1   12.2   12.1    61    4.8   0.0   ---   0.00   0.0   ---   12.1   11.4   11.4  1026.6  0.00   0.0   0.044   0.000   17.6    39    3.4   16.0   7.72 1.2215     ---   142    1     62.3   10 
22/06/21  4:00p   11.8   12.1   11.8    62    4.8   0.0   ---   0.00   0.0   ---   11.8   11.3   11.3  1026.8  0.00   0.0   0.045   0.000   17.4    39    3.3   15.9   7.72 1.2223     ---   158    1     69.3   10 
22/06/21  4:10p   11.6   11.8   11.6    64    5.0   0.0   ---   0.00   0.0   ---   11.6   11.1   11.1  1026.8  0.00   0.0   0.047   0.000   17.4    39    3.3   15.8   7.72 1.2225     ---   157    1     68.9   10 
22/06/21  4:20p   11.3   11.6   11.3    65    5.0   0.0   ---   0.00   0.0   ---   11.3   10.9   10.9  1027.1  0.00   0.0   0.049   0.000   17.3    39    3.2   15.7   7.71 1.2234     ---   141    1     61.8   10 
22/06/21  4:30p   11.1   11.3   11.1    66    5.0   0.0   ---   0.00   0.0   ---   11.1   10.7   10.7  1027.2  0.00   0.0   0.050   0.000   17.2    39    3.1   15.7   7.71 1.2238     ---   142    1     62.3   10 
22/06/21  4:40p   10.8   11.1   10.8    66    4.7   0.0   ---   0.00   0.0   ---   10.8   10.4   10.4  1027.2  0.00   0.0   0.052   0.000   17.1    39    3.0   15.6   7.71 1.2244     ---   154    1     67.5   10 
22/06/21  4:50p   10.3   10.8   10.3    67    4.5   0.0   ---   0.00   0.0   ---   10.3   10.0   10.0  1027.3  0.00   0.0   0.056   0.000   17.0    39    2.9   15.4   7.70 1.2250     ---   152    1     66.7   10 
22/06/21  5:00p    9.8   10.3    9.8    67    3.9   0.0   ---   0.00   0.0   ---    9.8    9.5    9.5  1027.3  0.00   0.0   0.059   0.000   16.9    39    2.9   15.4   7.70 1.2252     ---   148    1     64.9   10 
22/06/21  5:10p    9.2    9.8    9.2    69    3.8   0.0   ---   0.00   0.0   ---    9.2    8.9    8.9  1027.3  0.00   0.0   0.063   0.000   17.1    40    3.4   15.6   7.85 1.2242     ---   129    1     56.6   10 
22/06/21  5:20p    8.7    9.2    8.7    70    3.6   0.0   ---   0.00   0.0   ---    8.7    8.4    8.4  1027.4  0.00   0.0   0.067   0.000   17.7    40    3.9   16.2   7.85 1.2215     ---   116    1     50.9   10 
22/06/21  5:30p    8.1    8.6    8.1    71    3.2   0.0   ---   0.00   0.0   ---    8.1    7.8    7.8  1027.6  0.00   0.0   0.071   0.000   18.3    40    4.5   16.9   7.85 1.2188     ---   145    1     63.6   10 
22/06/21  5:40p    7.7    8.1    7.7    73    3.1   0.0   ---   0.00   0.0   ---    7.7    7.4    7.4  1027.6  0.00   0.0   0.074   0.000   18.6    39    4.4   17.1   7.74 1.2177     ---   168    1     73.7   10 
22/06/21  5:50p    7.2    7.7    7.2    75    3.0   0.0   ---   0.00   0.0   ---    7.2    6.9    6.9  1027.7  0.00   0.0   0.078   0.000   19.0    39    4.7   17.5   7.73 1.2159     ---   150    1     65.8   10 
22/06/21  6:00p    6.8    7.2    6.8    77    3.1   0.0   ---   0.00   0.0   ---    6.8    6.7    6.7  1027.7  0.00   0.0   0.080   0.000   19.1    39    4.8   17.6   7.72 1.2157     ---   148    1     64.9   10 
22/06/21  6:10p    6.6    6.8    6.6    79    3.2   0.0   ---   0.00   0.0   ---    6.6    6.5    6.5  1027.7  0.00   0.0   0.081   0.000   19.2    38    4.5   17.6   7.55 1.2154     ---   159    1     69.7   10 
22/06/21  6:20p    6.5    6.6    6.5    80    3.3   0.0   ---   0.00   0.0   ---    6.5    6.4    6.4  1028.0  0.00   0.0   0.082   0.000   19.3    38    4.6   17.8   7.55 1.2149     ---   156    1     68.4   10 
22/06/21  6:30p    6.4    6.5    6.4    81    3.4   0.0   ---   0.00   0.0   ---    6.4    6.3    6.3  1028.2  0.00   0.0   0.083   0.000   19.3    38    4.6   17.8   7.55 1.2152     ---   153    1     67.1   10 
22/06/21  6:40p    6.3    6.4    6.3    81    3.3   0.0   ---   0.00   0.0   ---    6.3    6.2    6.2  1028.2  0.00   0.0   0.083   0.000   19.4    38    4.7   17.9   7.55 1.2146     ---   156    1     68.4   10 
22/06/21  6:50p    6.3    6.3    6.3    82    3.4   0.0   ---   0.00   0.0   ---    6.3    6.2    6.2  1028.2  0.00   0.0   0.084   0.000   19.6    38    4.9   18.1   7.55 1.2139     ---   142    1     62.3   10 
22/06/21  7:00p    6.2    6.3    6.2    83    3.5   0.0   ---   0.00   0.0   ---    6.2    6.1    6.1  1028.1  0.00   0.0   0.084   0.000   19.6    37    4.5   18.1   7.35 1.2140     ---   103    1     45.2   10 
22/06/21  7:10p    6.2    6.2    6.2    84    3.7   0.0   ---   0.00   0.0   ---    6.2    6.2    6.2  1028.1  0.00   0.0   0.084   0.000   19.7    37    4.6   18.2   7.35 1.2135     ---   122    1     53.5   10 
22/06/21  7:20p    6.1    6.2    6.1    84    3.6   0.0   ---   0.00   0.0   ---    6.1    6.1    6.1  1028.3  0.00   0.0   0.085   0.000   19.8    38    5.0   18.3   7.55 1.2131     ---   128    1     56.1   10 
22/06/21  7:30p    6.1    6.1    6.1    85    3.7   0.0   ---   0.00   0.0   ---    6.1    6.0    6.0  1028.7  0.00   0.0   0.085   0.000   20.0    37    4.9   18.4   7.35 1.2128     ---   163    1     71.5   10 
22/06/21  7:40p    5.9    6.1    5.9    85    3.6   0.0   ---   0.00   0.0   ---    5.9    5.8    5.8  1028.7  0.00   0.0   0.086   0.000   20.1    37    4.9   18.5   7.35 1.2125     ---   134    1     58.8   10 
22/06/21  7:50p    5.8    5.9    5.8    85    3.5   0.0   ---   0.00   0.0   ---    5.8    5.7    5.7  1028.7  0.00   0.0   0.087   0.000   20.2    37    5.0   18.6   7.35 1.2120     ---   102    1     44.7   10 
22/06/21  8:00p    5.7    5.8    5.7    85    3.4   0.0   ---   0.00   0.0   ---    5.7    5.6    5.6  1028.9  0.00   0.0   0.088   0.000   20.2    37    5.0   18.6   7.35 1.2122     ---   154    1     67.5   10 
22/06/21  8:10p    5.7    5.7    5.7    86    3.5   0.0   ---   0.00   0.0   ---    5.7    5.6    5.6  1028.9  0.00   0.0   0.088   0.000   20.2    37    5.0   18.6   7.35 1.2122     ---   145    1     63.6   10 
22/06/21  8:20p    5.7    5.7    5.7    87    3.7   0.0   ---   0.00   0.0   ---    5.7    5.7    5.7  1028.5  0.00   0.0   0.088   0.000   20.2    37    5.0   18.6   7.35 1.2118     ---   143    1     62.7   10 
22/06/21  8:30p    6.1    6.1    5.8    89    4.4   0.0   ---   0.00   0.0   ---    6.1    6.1    6.1  1028.5  0.00   0.0   0.085   0.000   20.3    37    5.1   18.7   7.35 1.2112     ---   154    1     67.5   10 
22/06/21  8:40p    6.3    6.3    6.1    90    4.8   0.0   ---   0.00   0.0   ---    6.3    6.3    6.3  1028.5  0.00   0.0   0.083   0.000   20.2    37    5.0   18.6   7.35 1.2118     ---   151    1     66.2   10 
22/06/21  8:50p    6.5    6.5    6.3    90    5.0   0.0   ---   0.00   0.0   ---    6.5    6.6    6.6  1028.9  0.00   0.0   0.082   0.000   20.3    37    5.1   18.7   7.35 1.2117     ---   139    1     61.0   10 
22/06/21  9:00p    6.6    6.6    6.6    90    5.1   0.0   ---   0.00   0.0   ---    6.6    6.7    6.7  1029.1  0.00   0.0   0.081   0.000   20.3    37    5.1   18.7   7.35 1.2120     ---   129    1     56.6   10 
22/06/21  9:10p    6.5    6.6    6.5    90    5.0   0.0   ---   0.00   0.0   ---    6.5    6.6    6.6  1029.1  0.00   0.0   0.082   0.000   20.3    36    4.7   18.7   7.22 1.2123     ---   124    1     54.4   10 
22/06/21  9:20p    6.4    6.4    6.4    90    4.9   0.0   ---   0.00   0.0   ---    6.4    6.5    6.5  1028.3  0.00   0.0   0.083   0.000   20.3    37    5.2   18.8   7.35 1.2107     ---   138    1     60.5   10 
22/06/21  9:30p    6.6    6.6    6.4    91    5.2   0.0   ---   0.00   0.0   ---    6.6    6.7    6.7  1028.1  0.00   0.0   0.081   0.000   20.3    37    5.1   18.7   7.35 1.2108     ---   169    1     74.1   10 
22/06/21  9:40p    6.5    6.6    6.5    90    5.0   0.0   ---   0.00   0.0   ---    6.5    6.6    6.6  1028.1  0.00   0.0   0.082   0.000   20.3    37    5.2   18.8   7.35 1.2106     ---   148    1     64.9   10 
22/06/21  9:50p    6.3    6.5    6.3    90    4.8   0.0   ---   0.00   0.0   ---    6.3    6.3    6.3  1027.7  0.00   0.0   0.083   0.000   20.3    37    5.2   18.8   7.35 1.2101     ---   149    1     65.4   10 
22/06/21 10:00p    6.3    6.3    6.3    90    4.8   0.0   ---   0.00   0.0   ---    6.3    6.3    6.3  1027.6  0.00   0.0   0.084   0.000   20.3    36    4.8   18.7   7.22 1.2103     ---   149    1     65.4   10 
22/06/21 10:10p    6.2    6.3    6.2    91    4.9   0.0   ---   0.00   0.0   ---    6.2    6.2    6.2  1027.6  0.00   0.0   0.084   0.000   20.4    37    5.3   18.9   7.35 1.2094     ---   146    1     64.0   10 
22/06/21 10:20p    6.2    6.2    6.2    91    4.9   0.0   ---   0.00   0.0   ---    6.2    6.2    6.2  1027.5  0.00   0.0   0.084   0.000   20.4    36    4.9   18.8   7.23 1.2096     ---   148    1     64.9   10 
22/06/21 10:30p    6.1    6.2    6.1    91    4.8   0.0   ---   0.00   0.0   ---    6.1    6.1    6.1  1027.5  0.00   0.0   0.085   0.000   20.4    36    4.9   18.8   7.23 1.2096     ---   152    1     66.7   10 
22/06/21 10:40p    6.1    6.1    6.1    91    4.7   0.0   ---   0.00   0.0   ---    6.1    6.1    6.1  1027.5  0.00   0.0   0.085   0.000   20.3    36    4.7   18.7   7.22 1.2104     ---   155    1     68.0   10 
22/06/21 10:50p    5.9    5.9    5.9    91    4.6   0.0   ---   0.00   0.0   ---    5.9    5.9    5.9  1027.6  0.00   0.0   0.086   0.000   20.1    36    4.5   18.4   7.21 1.2116     ---   138    1     60.5   10 
22/06/21 11:00p    5.9    5.9    5.9    91    4.5   0.0   ---   0.00   0.0   ---    5.9    5.9    5.9  1027.5  0.00   0.0   0.086   0.000   19.8    36    4.3   18.2   7.20 1.2127     ---   121    1     53.1   10 
22/06/21 11:10p    5.7    5.9    5.7    91    4.4   0.0   ---   0.00   0.0   ---    5.7    5.7    5.7  1027.5  0.00   0.0   0.088   0.000   19.5    36    4.0   17.8   7.19 1.2140     ---   108    1     47.4   10 
22/06/21 11:20p    5.6    5.7    5.6    91    4.2   0.0   ---   0.00   0.0   ---    5.6    5.6    5.6  1026.6  0.00   0.0   0.089   0.000   19.3    36    3.9   17.7   7.19 1.2138     ---   166    1     72.8   10 
22/06/21 11:30p    5.6    5.6    5.5    92    4.4   0.0   ---   0.00   0.0   ---    5.6    5.6    5.6  1026.3  0.00   0.0   0.089   0.000   19.1    36    3.6   17.4   7.18 1.2148     ---   143    1     62.7   10 
22/06/21 11:40p    5.6    5.6    5.6    92    4.4   0.0   ---   0.00   0.0   ---    5.6    5.6    5.6  1026.3  0.00   0.0   0.089   0.000   18.9    36    3.5   17.2   7.17 1.2155     ---   154    1     67.5   10 
22/06/21 11:50p    5.5    5.6    5.5    92    4.3   0.0   ---   0.00   0.0   ---    5.5    5.5    5.5  1026.4  0.00   0.0   0.089   0.000   18.7    36    3.3   17.1   7.16 1.2164     ---   151    1     66.2   10 
23/06/21 12:00a    5.5    5.6    5.5    92    4.3   0.0   ---   0.00   0.0   ---    5.5    5.5    5.5  1026.7  0.00   0.0   0.089   0.000   18.6    37    3.6   16.9   7.35 1.2174     ---   164    1     71.9   10 
23/06/21 12:10a    5.5    5.5    5.5    92    4.3   0.0   ---   0.00   0.0   ---    5.5    5.5    5.5  1026.7  0.00   0.0   0.089   0.000   18.3    37    3.4   16.7   7.35 1.2184     ---   146    1     64.0   10 
23/06/21 12:20a    5.4    5.5    5.4    92    4.2   0.0   ---   0.00   0.0   ---    5.4    5.4    5.4  1026.4  0.00   0.0   0.090   0.000   18.2    37    3.2   16.5   7.35 1.2188     ---   152    1     66.7   10 
23/06/21 12:30a    5.3    5.4    5.3    92    4.1   0.0   ---   0.00   0.0   ---    5.3    5.3    5.3  1026.4  0.00   0.0   0.090   0.000   18.0    37    3.1   16.3   7.35 1.2196     ---   134    1     58.8   10 
23/06/21 12:40a    5.2    5.3    5.2    92    4.0   0.0   ---   0.00   0.0   ---    5.2    5.2    5.2  1026.4  0.00   0.0   0.091   0.000   17.9    37    3.0   16.2   7.35 1.2201     ---   142    1     62.3   10 
23/06/21 12:50a    5.2    5.2    5.2    92    4.0   0.0   ---   0.00   0.0   ---    5.2    5.2    5.2  1026.6  0.00   0.0   0.091   0.000   17.7    37    2.8   16.1   7.35 1.2211     ---   130    1     57.0   10 
23/06/21  1:00a    5.2    5.2    5.2    92    4.0   0.0   ---   0.00   0.0   ---    5.2    5.2    5.2  1025.7  0.00   0.0   0.091   0.000   17.6    37    2.7   15.9   7.35 1.2206     ---   110    1     48.2   10 
23/06/21  1:10a    5.1    5.2    5.1    92    3.9   0.0   ---   0.00   0.0   ---    5.1    5.1    5.1  1025.7  0.00   0.0   0.092   0.000   17.4    37    2.6   15.8   7.35 1.2214     ---   121    1     53.1   10 
23/06/21  1:20a    5.1    5.1    5.1    92    3.9   0.0   ---   0.00   0.0   ---    5.1    5.1    5.1  1025.0  0.00   0.0   0.092   0.000   17.4    37    2.5   15.7   7.35 1.2209     ---   157    1     68.9   10 
23/06/21  1:30a    5.1    5.1    5.1    93    4.1   0.0   ---   0.00   0.0   ---    5.1    5.1    5.1  1024.9  0.00   0.0   0.092   0.000   17.2    37    2.4   15.6   7.35 1.2215     ---   143    1     62.7   10 
23/06/21  1:40a    5.2    5.2    5.1    93    4.2   0.0   ---   0.00   0.0   ---    5.2    5.2    5.2  1024.9  0.00   0.0   0.091   0.000   17.1    37    2.3   15.4   7.35 1.2220     ---   148    1     64.9   10 
23/06/21  1:50a    5.2    5.2    5.2    93    4.1   0.0   ---   0.00   0.0   ---    5.2    5.2    5.2  1025.1  0.00   0.0   0.091   0.000   17.0    38    2.6   15.4   7.55 1.2226     ---   149    1     65.4   10 
23/06/21  2:00a    5.0    5.2    5.0    93    4.0   0.0   ---   0.00   0.0   ---    5.0    5.0    5.0  1024.9  0.00   0.0   0.093   0.000   16.9    38    2.5   15.3   7.55 1.2226     ---   146    1     64.0   10 
23/06/21  2:10a    4.8    5.0    4.8    93    3.8   0.0   ---   0.00   0.0   ---    4.8    4.8    4.8  1024.9  0.00   0.0   0.094   0.000   16.8    38    2.4   15.2   7.55 1.2234     ---   142    1     62.3   10 
23/06/21  2:20a    4.7    4.8    4.7    93    3.6   0.0   ---   0.00   0.0   ---    4.7    4.7    4.7  1024.8  0.00   0.0   0.095   0.000   16.7    38    2.3   15.1   7.55 1.2238     ---   153    1     67.1   10 
23/06/21  2:30a    4.6    4.7    4.6    93    3.6   0.0   ---   0.00   0.0   ---    4.6    4.6    4.6  1024.7  0.00   0.0   0.095   0.000   16.6    38    2.2   15.0   7.55 1.2240     ---   153    1     67.1   10 
23/06/21  2:40a    4.4    4.6    4.4    93    3.4   0.0   ---   0.00   0.0   ---    4.4    4.4    4.4  1024.7  0.00   0.0   0.096   0.000   16.5    38    2.1   14.9   7.55 1.2245     ---   147    1     64.5   10 
23/06/21  2:50a    4.3    4.4    4.3    93    3.2   0.0   ---   0.00   0.0   ---    4.3    4.3    4.3  1024.7  0.00   0.0   0.098   0.000   16.3    38    2.0   14.7   7.55 1.2252     ---   134    1     58.8   10 
23/06/21  3:00a    4.1    4.3    4.1    93    3.1   0.0   ---   0.00   0.0   ---    4.1    4.1    4.1  1024.8  0.00   0.0   0.099   0.000   16.2    38    1.9   14.6   7.55 1.2259     ---   110    1     48.2   10 
23/06/21  3:10a    3.8    4.1    3.8    92    2.7   0.0   ---   0.00   0.0   ---    3.8    3.8    3.8  1024.8  0.00   0.0   0.101   0.000   16.2    38    1.8   14.6   7.55 1.2262     ---   126    1     55.3   10 
23/06/21  3:20a    3.7    3.8    3.7    93    2.6   0.0   ---   0.00   0.0   ---    3.7    3.7    3.7  1025.0  0.00   0.0   0.102   0.000   16.1    38    1.7   14.4   7.55 1.2269     ---   147    1     64.5   10 
23/06/21  3:30a    3.6    3.7    3.6    93    2.5   0.0   ---   0.00   0.0   ---    3.6    3.6    3.6  1025.7  0.00   0.0   0.103   0.000   16.1    38    1.7   14.4   7.55 1.2278     ---   114    1     50.0   10 
23/06/21  3:40a    3.5    3.6    3.5    93    2.5   0.0   ---   0.00   0.0   ---    3.5    3.5    3.5  1025.7  0.00   0.0   0.103   0.000   16.0    38    1.7   14.4   7.55 1.2281     ---   148    1     64.9   10 
23/06/21  3:50a    3.3    3.5    3.3    93    2.3   0.0   ---   0.00   0.0   ---    3.3    3.3    3.3  1025.4  0.00   0.0   0.104   0.000   15.8    38    1.5   14.2   7.55 1.2288     ---   152    1     66.7   10 
23/06/21  4:00a    3.2    3.3    3.2    93    2.1   0.0   ---   0.00   0.0   ---    3.2    3.2    3.2  1025.4  0.00   0.0   0.105   0.000   15.7    38    1.4   14.1   7.55 1.2290     ---   142    1     62.3   10 
23/06/21  4:10a    2.9    3.1    2.9    93    1.9   0.0   ---   0.00   0.0   ---    2.9    2.9    2.9  1025.4  0.00   0.0   0.107   0.000   15.6    38    1.3   14.0   7.55 1.2295     ---   149    1     65.4   10 
23/06/21  4:20a    2.9    2.9    2.9    93    1.9   0.0   ---   0.00   0.0   ---    2.9    2.9    2.9  1025.3  0.00   0.0   0.107   0.000   15.6    38    1.3   13.9   7.55 1.2297     ---   139    1     61.0   10 
23/06/21  4:30a    2.9    2.9    2.8    93    1.9   0.0   ---   0.00   0.0   ---    2.9    2.9    2.9  1025.3  0.00   0.0   0.107   0.000   15.4    38    1.2   13.8   7.55 1.2303     ---   144    1     63.2   10 
23/06/21  4:40a    2.8    2.9    2.8    93    1.8   0.0   ---   0.00   0.0   ---    2.8    2.8    2.8  1025.3  0.00   0.0   0.108   0.000   15.4    38    1.1   13.8   7.54 1.2305     ---   151    1     66.2   10 
23/06/21  4:50a    2.8    2.8    2.8    93    1.8   0.0   ---   0.00   0.0   ---    2.8    2.8    2.8  1025.1  0.00   0.0   0.108   0.000   15.3    38    1.0   13.7   7.54 1.2308     ---   144    1     63.2   10 
23/06/21  5:00a    2.8    2.8    2.8    93    1.8   0.0   ---   0.00   0.0   ---    2.8    2.8    2.8  1025.2  0.00   0.0   0.108   0.000   15.2    38    1.0   13.6   7.54 1.2312     ---   120    1     52.6   10 
23/06/21  5:10a    2.7    2.8    2.7    93    1.7   0.0   ---   0.00   0.0   ---    2.7    2.7    2.7  1025.2  0.00   0.0   0.108   0.000   15.1    38    0.9   13.5   7.53 1.2317     ---   111    1     48.7   10 
23/06/21  5:20a    2.7    2.7    2.7    93    1.7   0.0   ---   0.00   0.0   ---    2.7    2.7    2.7  1025.6  0.00   0.0   0.108   0.000   15.1    38    0.8   13.4   7.53 1.2324     ---   149    1     65.4   10 
23/06/21  5:30a    2.6    2.7    2.6    93    1.6   0.0   ---   0.00   0.0   ---    2.6    2.6    2.6  1025.5  0.00   0.0   0.109   0.000   14.9    38    0.7   13.3   7.53 1.2329     ---   153    1     67.1   10 
23/06/21  5:40a    2.6    2.6    2.6    93    1.5   0.0   ---   0.00   0.0   ---    2.6    2.6    2.6  1025.5  0.00   0.0   0.110   0.000   14.9    38    0.7   13.3   7.53 1.2332     ---   154    1     67.5   10 
23/06/21  5:50a    2.6    2.6    2.6    93    1.6   0.0   ---   0.00   0.0   ---    2.6    2.6    2.6  1025.6  0.00   0.0   0.109   0.000   14.8    38    0.6   13.2   7.52 1.2339     ---   142    1     62.3   10 
23/06/21  6:00a    2.6    2.6    2.6    94    1.7   0.0   ---   0.00   0.0   ---    2.6    2.6    2.6  1025.8  0.00   0.0   0.109   0.000   14.7    38    0.5   13.2   7.52 1.2343     ---   144    1     63.2   10 
23/06/21  6:10a    2.6    2.7    2.6    94    1.7   0.0   ---   0.00   0.0   ---    2.6    2.6    2.6  1025.8  0.00   0.0   0.109   0.000   14.6    39    0.8   13.1   7.65 1.2346     ---   146    1     64.0   10 
23/06/21  6:20a    2.6    2.6    2.6    94    1.7   0.0   ---   0.00   0.0   ---    2.6    2.6    2.6  1025.7  0.00   0.0   0.109   0.000   14.6    39    0.7   13.1   7.65 1.2348     ---   143    1     62.7   10 
23/06/21  6:30a    2.6    2.6    2.6    94    1.7   0.0   ---   0.00   0.0   ---    2.6    2.6    2.6  1025.7  0.00   0.0   0.110   0.000   14.4    39    0.6   12.9   7.65 1.2353     ---   153    1     67.1   10 
23/06/21  6:40a    2.7    2.7    2.6    94    1.9   0.0   ---   0.00   0.0   ---    2.7    2.7    2.7  1025.7  0.00   0.0   0.108   0.000   14.6    39    0.8   13.1   7.65 1.2345     ---   150    1     65.8   10 
23/06/21  6:50a    2.7    2.7    2.7    94    1.9   0.0   ---   0.00   0.0   ---    2.7    2.7    2.7  1025.5  0.00   0.0   0.108   0.000   15.1    40    1.6   13.6   7.85 1.2317     ---   155    1     68.0   10 
23/06/21  7:00a    2.6    2.7    2.6    94    1.7   0.0   ---   0.00   0.0   ---    2.6    2.6    2.6  1025.4  0.00   0.0   0.109   0.000   15.8    40    2.2   14.3   7.85 1.2284     ---   133    1     58.3   10 
23/06/21  7:10a    2.6    2.6    2.6    94    1.7   0.0   ---   0.00   0.0   ---    2.6    2.6    2.6  1025.4  0.00   0.0   0.109   0.000   16.5    40    2.8   15.0   7.85 1.2249     ---   102    1     44.7   10 
23/06/21  7:20a    2.8    2.8    2.6    95    2.1   0.0   ---   0.00   0.0   ---    2.8    2.8    2.8  1025.4  0.00   0.0   0.108   0.000   17.3    40    3.5   15.8   7.85 1.2212     ---    90    1     39.5   10 
23/06/21  7:30a    2.8    2.8    2.8    95    2.1   0.0   ---   0.00   0.0   ---    2.8    2.8    2.8  1025.8  0.00   0.0   0.108   0.000   17.9    40    4.1   16.4   7.85 1.2187     ---   162    1     71.1   10 
23/06/21  7:40a    2.8    2.8    2.8    95    2.1   0.0   ---   0.00   0.0   ---    2.8    2.8    2.8  1025.8  0.00   0.0   0.108   0.000   17.8    38    3.3   16.2   7.55 1.2194     ---   140    1     61.4   10 
23/06/21  7:50a    2.9    2.9    2.8    95    2.2   0.0   ---   0.00   0.0   ---    2.9    2.9    2.9  1025.2  0.00   0.0   0.107   0.000   17.6    38    3.1   15.9   7.55 1.2201     ---   166    1     72.8   10 
23/06/21  8:00a    3.4    3.4    3.0    96    2.8   0.0   ---   0.00   0.0   ---    3.4    3.4    3.4  1025.1  0.00   0.0   0.104   0.000   17.3    37    2.4   15.6   7.35 1.2215     ---   166    1     72.8   10 
23/06/21  8:10a    3.7    3.7    3.4    96    3.1   0.0   ---   0.00   0.0   ---    3.7    3.7    3.7  1025.1  0.00   0.0   0.101   0.000   17.0    37    2.2   15.3   7.35 1.2229     ---   156    1     68.4   10 
23/06/21  8:20a    3.8    3.8    3.7    96    3.3   0.0   ---   0.00   0.0   ---    3.8    3.8    3.8  1025.2  0.00   0.0   0.101   0.000   16.8    37    2.0   15.1   7.35 1.2240     ---   164    1     71.9   10 
23/06/21  8:30a    3.9    3.9    3.8    96    3.3   0.0   ---   0.00   0.0   ---    3.9    3.9    3.9  1025.4  0.00   0.0   0.100   0.000   16.6    37    1.8   14.9   7.35 1.2250     ---   164    1     71.9   10 
23/06/21  8:40a    4.1    4.1    3.9    96    3.5   0.0   ---   0.00   0.0   ---    4.1    4.2    4.2  1025.4  0.00   0.0   0.099   0.000   16.4    38    2.0   14.8   7.55 1.2259     ---   153    1     67.1   10 
23/06/21  8:50a    4.3    4.3    4.1    96    3.7   0.0   ---   0.00   0.0   ---    4.3    4.3    4.3  1025.0  0.00   0.0   0.098   0.000   16.2    38    1.9   14.6   7.55 1.2262     ---   166    1     72.8   10 
23/06/21  9:00a    4.6    4.6    4.3    96    4.0   0.0   ---   0.00   0.0   ---    4.6    4.6    4.6  1024.9  0.00   0.0   0.096   0.000   16.1    38    1.7   14.4   7.55 1.2268     ---   156    1     68.4   10 
23/06/21  9:10a    4.8    4.8    4.6    97    4.3   0.0   ---   0.00   0.0   ---    4.8    4.8    4.8  1024.9  0.00   0.0   0.094   0.000   15.9    38    1.6   14.3   7.55 1.2276     ---   141    1     61.8   10 
23/06/21  9:20a    5.1    5.1    4.8    97    4.7   0.0   ---   0.00   0.0   ---    5.1    5.2    5.2  1025.1  0.00   0.0   0.092   0.000   15.8    38    1.5   14.2   7.55 1.2284     ---   128    1     56.1   10 
23/06/21  9:30a    5.3    5.3    5.1    97    4.9   0.0   ---   0.00   0.0   ---    5.3    5.4    5.4  1024.9  0.00   0.0   0.090   0.000   15.7    38    1.4   14.1   7.55 1.2284     ---   160    1     70.2   10 
23/06/21  9:40a    5.6    5.6    5.3    97    5.1   0.0   ---   0.00   0.0   ---    5.6    5.6    5.6  1024.9  0.00   0.0   0.089   0.000   15.6    38    1.3   14.0   7.55 1.2289     ---   161    1     70.6   10 
23/06/21  9:50a    5.9    5.9    5.6    98    5.6   0.0   ---   0.00   0.0   ---    5.9    6.0    6.0  1024.7  0.00   0.0   0.086   0.000   15.6    38    1.3   13.9   7.55 1.2290     ---   160    1     70.2   10 
23/06/21 10:00a    6.3    6.3    5.9    98    6.0   0.0   ---   0.00   0.0   ---    6.3    6.4    6.4  1024.7  0.00   0.0   0.084   0.000   15.6    38    1.3   13.9   7.55 1.2290     ---   155    1     68.0   10 
23/06/21 10:10a    6.7    6.7    6.3    99    6.5   0.0   ---   0.00   0.0   ---    6.7    6.9    6.9  1024.7  0.00   0.0   0.081   0.000   15.4    38    1.2   13.8   7.55 1.2296     ---   164    1     71.9   10 
23/06/21 10:20a    7.0    7.0    6.8    99    6.9   0.0   ---   0.00   0.0   ---    7.0    7.2    7.2  1024.6  0.00   0.0   0.079   0.000   15.4    38    1.2   13.8   7.55 1.2294     ---   163    1     71.5   10 
23/06/21 10:30a    7.3    7.3    7.0    99    7.2   0.0   ---   0.00   0.0   ---    7.3    7.6    7.6  1024.2  0.00   0.0   0.076   0.000   15.4    38    1.2   13.8   7.55 1.2289     ---   165    1     72.4   10 
23/06/21 10:40a    7.7    7.7    7.4    99    7.6   0.0   ---   0.00   0.0   ---    7.7    7.9    7.9  1024.2  0.00   0.0   0.074   0.000   15.4    39    1.5   13.9   7.65 1.2287     ---   156    1     68.4   10 
23/06/21 10:50a    8.1    8.1    7.7    99    8.0   0.0   ---   0.00   0.0   ---    8.1    8.3    8.3  1023.8  0.00   0.0   0.071   0.000   15.4    39    1.5   13.9   7.65 1.2282     ---   150    1     65.8   10 
23/06/21 11:00a    8.6    8.6    8.1    99    8.5   0.0   ---   0.00   0.0   ---    8.6    8.9    8.9  1023.4  0.00   0.0   0.068   0.000   15.4    39    1.5   13.9   7.65 1.2277     ---   138    1     60.5   10 
23/06/21 11:10a    8.9    8.9    8.6    99    8.8   0.0   ---   0.00   0.0   ---    8.9    9.3    9.3  1023.4  0.00   0.0   0.065   0.000   15.6    39    1.6   14.0   7.65 1.2272     ---   126    1     55.3   10 
23/06/21 11:20a    9.3    9.3    8.9    98    9.0   0.0   ---   0.00   0.0   ---    9.3    9.6    9.6  1023.1  0.00   0.0   0.063   0.000   15.6    39    1.7   14.1   7.65 1.2266     ---   177    1     77.6   10